Terminal Aerodrome Forecast
Issued by NWS

Home | Current Version | Previous Version | Text Only | Print | Product List | Glossary On
Versions: 1 2 3 4 5 6 7 8 9 10 11 12 13 14 15 16 17 18 19 20
000
FTPA31 PHFO 280101 AAA
TAFHNY
TAF AMD
PHNY 280101Z 2801/2824 25005KT P6SM BKN025
     FM280300 06008KT P6SM SCT025 BKN045
     FM282000 26005KT P6SM BKN015=

USA.gov is the U.S. government's official web portal to all federal, state and local government web resources and services.